Página principal
METAR-TAF:

METAR-TAF

Aeroportos :

Jidá, Arábia Saudita

Aeroporto Internacional Rei Abdulaziz

latitude: 21-42N, longitude: 039-11E, altura: 15 m

Observação actual do tempo

O boletim foi feito há 46 minutos, às 23:00 UTC
Vento 4 kt de oeste
Temperatura 34°C
Humidade 39%
Pressão 1003 hPa
Visibilidade 10 km ou mais
sem nuvens abaixo de 1500 metros e sem cumulonimbus

METAR: OEJN 182300Z 27004KT CAVOK 34/18 Q1003 NOSIG

Hora: 02:46 (23:46 UTC)

Previsão

O boletim foi feito há 46 minutos, às 23:00 UTC
Previsão válida de 19 às 00 UTC a 20 às 06 UTC
Vento 6 kt de norte
Visibilidade: 7000 m
Poucas nuvensa uma altura de 4000 ft
Nuvens dispersasa uma altura de 10000 ft
Tornando-se
de 19 às 06 UTC a 19 às 08 UTC
Vento 15 kt de oes-noroeste

TAF: OEJN 182300Z 1900/2006 36006KT 7000 FEW040 SCT100 BECMG 1906/1908 30015KT

Observações e previsões do tempo de mais de 4000 aeroportos (mensagens METAR e TAF).

As estações disponíveis são os pontos amarelos e vermelhos sobre o mapa.

Mova o rato sobre o mapa para ver o nome da estação.

Depois clique no ponto para visualizar as observações e previsões meteorológicas.

Para alterar o mapa : clique nos botões verdes com uma cruz preta para aumentar o zoom; no botão verde com uma pitada de zoom; ou nas setas verdes para mapas adjacentes.


METAR-TAF: